Time;durP1;ratioP1;P1;durP2;ratioP2;P2;SDS_P1;SDS_P2;PMS_P1;PMS_P2;Temp;Humidity;BMP_temperature;BMP_pressure;BME280_temperature;BME280_humidity;BME280_pressure;Samples;Min_cycle;Max_cycle;Signal;HPM_P1;HPM_P2
2021/07/04 00:01:17;;;;;;;11.97;10.77;;;;;;;;;;5015774;28;20442;-92
2021/07/04 00:03:50;;;;;;;11.13;10.13;;;;;;;;;;5023336;28;20757;-91
2021/07/04 00:06:22;;;;;;;11.52;10.48;;;;;;;;;;5030364;28;20908;-92
2021/07/04 00:08:59;;;;;;;10.48;9.48;;;;;;;;;;5030848;28;20411;-91
2021/07/04 00:11:26;;;;;;;12.07;10.15;;;;;;;;;;5028632;28;20479;-91
2021/07/04 00:14:17;;;;;;;10.50;9.50;;;;;;;;;;5031007;28;20507;-91
2021/07/04 00:16:44;;;;;;;10.48;9.48;;;;;;;;;;4995814;28;20422;-91
2021/07/04 00:19:24;;;;;;;11.15;10.20;;;;;;;;;;5032114;28;20741;-91
2021/07/04 00:21:52;;;;;;;12.38;11.18;;;;;;;;;;5041579;28;20932;-90
2021/07/04 00:24:25;;;;;;;11.27;10.18;;;;;;;;;;5027623;28;20409;-91
2021/07/04 00:26:52;;;;;;;11.23;10.23;;;;;;;;;;5033311;28;20403;-91
2021/07/04 00:29:20;;;;;;;11.20;10.23;;;;;;;;;;5029136;28;20530;-91
2021/07/04 00:31:47;;;;;;;11.80;10.65;;;;;;;;;;5039278;28;20888;-91
2021/07/04 00:34:14;;;;;;;10.97;9.90;;;;;;;;;;5036117;28;20949;-91
2021/07/04 00:36:41;;;;;;;9.77;8.97;;;;;;;;;;5034569;28;20421;-91
2021/07/04 00:39:14;;;;;;;10.90;9.77;;;;;;;;;;5035902;28;20523;-91
2021/07/04 00:41:48;;;;;;;10.70;9.60;;;;;;;;;;5033730;28;20662;-91
2021/07/04 00:44:15;;;;;;;11.27;10.20;;;;;;;;;;5035126;28;20408;-91
2021/07/04 00:49:30;;;;;;;10.48;9.55;;;;;;;;;;5025691;28;20452;-91
2021/07/04 00:52:13;;;;;;;10.65;9.65;;;;;;;;;;5038455;28;20418;-91
2021/07/04 00:54:47;;;;;;;10.65;9.55;;;;;;;;;;5041084;28;20415;-91
2021/07/04 00:57:14;;;;;;;12.15;9.30;;;;;;;;;;5037022;28;20496;-91
2021/07/04 00:59:42;;;;;;;10.13;9.23;;;;;;;;;;5035693;28;20787;-91
2021/07/04 01:02:10;;;;;;;9.98;9.07;;;;;;;;;;5035946;28;20741;-91
2021/07/04 01:04:37;;;;;;;9.98;9.02;;;;;;;;;;5034376;28;20413;-91
2021/07/04 01:07:13;;;;;;;10.65;9.60;;;;;;;;;;5036549;28;20768;-90
2021/07/04 01:09:40;;;;;;;9.70;8.90;;;;;;;;;;5036207;28;20413;-91
2021/07/04 01:12:10;;;;;;;9.65;8.75;;;;;;;;;;5037075;28;20427;-92
2021/07/04 01:14:37;;;;;;;10.40;9.30;;;;;;;;;;5041165;28;20781;-91
2021/07/04 01:17:15;;;;;;;10.38;9.40;;;;;;;;;;5033516;28;20443;-91
2021/07/04 01:19:48;;;;;;;10.93;9.82;;;;;;;;;;5036926;28;20689;-91
2021/07/04 01:22:36;;;;;;;11.23;10.18;;;;;;;;;;5035015;28;20888;-91
2021/07/04 01:25:15;;;;;;;;;;;;;;;;;;;;;
2021/07/04 01:27:46;;;;;;;10.32;9.32;;;;;;;;;;5034973;28;20561;-91
2021/07/04 01:30:17;;;;;;;11.05;10.05;;;;;;;;;;5036424;28;20403;-91
2021/07/04 01:32:54;;;;;;;10.48;9.57;;;;;;;;;;5037259;28;20409;-90
2021/07/04 01:35:24;;;;;;;11.10;10.00;;;;;;;;;;5045426;28;20506;-91
2021/07/04 01:38:14;;;;;;;11.30;10.20;;;;;;;;;;5046737;28;20418;-91
2021/07/04 01:40:45;;;;;;;10.57;9.63;;;;;;;;;;5028566;28;20436;-91
2021/07/04 01:43:12;;;;;;;10.50;9.40;;;;;;;;;;5040607;28;20412;-91
2021/07/04 01:45:42;;;;;;;10.13;9.20;;;;;;;;;;5035597;28;20549;-91
2021/07/04 01:48:17;;;;;;;10.93;10.00;;;;;;;;;;5046864;28;20479;-91
2021/07/04 01:51:03;;;;;;;10.68;9.57;;;;;;;;;;5046130;28;20767;-90
2021/07/04 01:53:40;;;;;;;11.23;10.10;;;;;;;;;;5042659;28;20477;-91
2021/07/04 01:56:12;;;;;;;12.13;11.07;;;;;;;;;;5046140;28;20416;-90
2021/07/04 01:58:42;;;;;;;12.95;11.65;;;;;;;;;;5045826;28;20418;-90
2021/07/04 02:01:11;;;;;;;12.03;10.93;;;;;;;;;;5046075;28;20461;-91
2021/07/04 02:03:38;;;;;;;12.38;11.00;;;;;;;;;;5046771;28;20400;-91
2021/07/04 02:06:13;;;;;;;13.15;11.93;;;;;;;;;;5030694;28;20448;-91
2021/07/04 02:08:40;;;;;;;13.77;12.38;;;;;;;;;;5025866;28;20524;-90
2021/07/04 02:11:27;;;;;;;14.35;12.88;;;;;;;;;;5025627;28;20409;-91
2021/07/04 02:13:54;;;;;;;13.50;12.25;;;;;;;;;;5024872;28;20436;-91
2021/07/04 02:16:25;;;;;;;13.20;12.05;;;;;;;;;;5025863;28;20424;-90
2021/07/04 02:18:54;;;;;;;13.87;12.47;;;;;;;;;;5025454;28;20718;-91
2021/07/04 02:21:21;;;;;;;13.73;12.40;;;;;;;;;;5025913;28;20487;-91
2021/07/04 02:23:48;;;;;;;14.00;12.70;;;;;;;;;;5007441;28;20467;-90
2021/07/04 02:26:24;;;;;;;13.45;12.25;;;;;;;;;;5020183;28;20412;-89
2021/07/04 02:28:51;;;;;;;14.07;12.70;;;;;;;;;;5025297;28;20849;-90
2021/07/04 02:31:17;;;;;;;13.20;12.00;;;;;;;;;;5024676;28;20409;-90
2021/07/04 02:33:45;;;;;;;13.07;11.88;;;;;;;;;;5007558;28;20917;-90
2021/07/04 02:36:11;;;;;;;14.63;13.32;;;;;;;;;;5007965;28;20934;-91
2021/07/04 02:38:38;;;;;;;14.43;13.10;;;;;;;;;;5025758;28;20421;-91
2021/07/04 02:41:05;;;;;;;14.60;13.20;;;;;;;;;;5025264;28;20397;-91
2021/07/04 02:43:36;;;;;;;14.38;13.07;;;;;;;;;;5024841;28;20909;-90
2021/07/04 02:46:03;;;;;;;16.33;12.95;;;;;;;;;;5024882;28;20770;-91
2021/07/04 02:48:33;;;;;;;15.48;14.00;;;;;;;;;;5024467;28;20417;-91
2021/07/04 02:50:59;;;;;;;15.82;14.32;;;;;;;;;;5024893;28;20428;-91
2021/07/04 02:53:26;;;;;;;16.23;14.65;;;;;;;;;;5025096;28;20823;-91
2021/07/04 02:55:53;;;;;;;16.00;14.38;;;;;;;;;;5024653;28;20413;-91
2021/07/04 02:58:20;;;;;;;15.97;14.57;;;;;;;;;;5024964;28;20794;-91
2021/07/04 03:00:51;;;;;;;16.23;14.55;;;;;;;;;;5025108;28;20405;-90
2021/07/04 03:03:18;;;;;;;16.73;15.15;;;;;;;;;;5025099;28;20574;-91
2021/07/04 03:05:45;;;;;;;17.67;15.77;;;;;;;;;;5024338;28;20421;-90
2021/07/04 03:08:13;;;;;;;16.88;15.32;;;;;;;;;;5024859;28;20417;-90
2021/07/04 03:10:40;;;;;;;16.63;15.02;;;;;;;;;;5024710;28;20519;-91
2021/07/04 03:13:08;;;;;;;15.75;14.25;;;;;;;;;;5024391;28;20885;-91
2021/07/04 03:15:38;;;;;;;17.48;15.77;;;;;;;;;;5024374;28;20421;-91
2021/07/04 03:18:06;;;;;;;16.90;15.33;;;;;;;;;;5024207;28;20488;-91
2021/07/04 03:20:36;;;;;;;18.52;16.77;;;;;;;;;;5024643;28;20815;-91
2021/07/04 03:23:03;;;;;;;18.67;16.98;;;;;;;;;;5024645;28;20397;-91
2021/07/04 03:25:37;;;;;;;18.57;16.87;;;;;;;;;;5028278;28;20418;-91
2021/07/04 03:28:08;;;;;;;17.63;16.02;;;;;;;;;;5044465;28;20419;-90
2021/07/04 03:30:35;;;;;;;17.05;15.57;;;;;;;;;;5043712;28;20412;-92
2021/07/04 03:33:01;;;;;;;17.42;15.82;;;;;;;;;;5043786;28;20458;-91
2021/07/04 03:35:33;;;;;;;16.95;15.57;;;;;;;;;;5043549;28;20457;-90
2021/07/04 03:38:00;;;;;;;17.55;16.05;;;;;;;;;;5044137;28;20411;-91
2021/07/04 03:40:27;;;;;;;16.08;14.68;;;;;;;;;;5043713;28;20407;-91
2021/07/04 03:42:54;;;;;;;16.20;14.65;;;;;;;;;;5044050;28;20438;-91
2021/07/04 03:45:21;;;;;;;16.00;14.57;;;;;;;;;;5043669;28;20408;-91
2021/07/04 03:47:51;;;;;;;14.80;13.50;;;;;;;;;;5043751;28;20415;-91
2021/07/04 03:50:18;;;;;;;15.90;14.57;;;;;;;;;;5043714;28;20835;-90
2021/07/04 03:52:48;;;;;;;15.00;13.80;;;;;;;;;;5043452;28;20416;-91
2021/07/04 03:55:15;;;;;;;15.55;14.15;;;;;;;;;;5042847;28;20484;-90
2021/07/04 03:57:43;;;;;;;14.30;13.05;;;;;;;;;;5043335;28;20400;-90
2021/07/04 04:00:11;;;;;;;13.53;12.43;;;;;;;;;;5043161;28;20443;-89
2021/07/04 04:02:38;;;;;;;13.90;12.80;;;;;;;;;;5043477;28;20568;-89
2021/07/04 04:05:06;;;;;;;13.60;12.60;;;;;;;;;;5030490;28;20421;-89
2021/07/04 04:07:34;;;;;;;13.70;12.60;;;;;;;;;;5042494;28;20473;-89
2021/07/04 04:10:02;;;;;;;13.73;12.45;;;;;;;;;;5043247;28;20418;-90
2021/07/04 04:12:29;;;;;;;12.27;11.18;;;;;;;;;;5043861;28;20411;-89
2021/07/04 04:14:56;;;;;;;12.00;11.00;;;;;;;;;;5043757;28;20942;-89
2021/07/04 04:17:23;;;;;;;13.25;12.15;;;;;;;;;;5044440;28;20965;-90
2021/07/04 04:19:50;;;;;;;12.50;11.50;;;;;;;;;;5044082;28;20411;-89
2021/07/04 04:22:17;;;;;;;12.25;11.18;;;;;;;;;;5040401;28;20407;-90
2021/07/04 04:24:44;;;;;;;12.00;11.00;;;;;;;;;;5045648;28;20469;-90
2021/07/04 04:27:13;;;;;;;11.13;10.30;;;;;;;;;;5048111;28;21141;-90
2021/07/04 04:29:49;;;;;;;11.13;10.23;;;;;;;;;;5048102;28;20407;-90
2021/07/04 04:32:25;;;;;;;10.80;9.80;;;;;;;;;;5047573;28;20414;-90
2021/07/04 04:34:52;;;;;;;9.80;8.93;;;;;;;;;;5047446;28;20420;-90
2021/07/04 04:37:18;;;;;;;9.45;8.65;;;;;;;;;;5047818;28;20416;-90
2021/07/04 04:39:45;;;;;;;9.07;8.38;;;;;;;;;;5048060;28;20416;-90
2021/07/04 04:42:14;;;;;;;9.25;8.45;;;;;;;;;;5047000;28;20415;-90
2021/07/04 04:44:41;;;;;;;8.70;7.90;;;;;;;;;;5047694;28;20395;-90
2021/07/04 04:47:08;;;;;;;8.40;7.80;;;;;;;;;;5047569;28;20690;-90
2021/07/04 04:49:35;;;;;;;8.98;8.30;;;;;;;;;;5047104;28;20419;-90
2021/07/04 04:52:04;;;;;;;8.40;7.70;;;;;;;;;;5047600;28;20399;-90
2021/07/04 04:54:34;;;;;;;7.75;7.15;;;;;;;;;;5047055;28;20415;-90
2021/07/04 04:57:06;;;;;;;7.00;6.40;;;;;;;;;;5047211;28;20408;-90
2021/07/04 04:59:36;;;;;;;6.45;5.95;;;;;;;;;;5047847;28;20408;-89
2021/07/04 05:02:03;;;;;;;6.60;6.10;;;;;;;;;;5046994;28;20396;-90
2021/07/04 05:04:30;;;;;;;6.30;5.70;;;;;;;;;;5047282;28;20418;-90
2021/07/04 05:06:57;;;;;;;6.40;5.90;;;;;;;;;;5038215;28;20422;-90
2021/07/04 05:09:34;;;;;;;7.17;6.57;;;;;;;;;;5031127;28;20409;-90
2021/07/04 05:12:01;;;;;;;6.85;6.35;;;;;;;;;;5034407;28;20420;-90
2021/07/04 05:14:27;;;;;;;7.28;6.70;;;;;;;;;;5038427;28;20500;-90
2021/07/04 05:16:56;;;;;;;7.07;6.47;;;;;;;;;;5038233;28;21025;-89
2021/07/04 05:19:29;;;;;;;7.07;6.38;;;;;;;;;;5039663;28;20415;-89
2021/07/04 05:21:55;;;;;;;7.53;6.90;;;;;;;;;;5038992;28;20934;-90
2021/07/04 05:24:22;;;;;;;7.32;6.63;;;;;;;;;;5033885;28;20409;-89
2021/07/04 05:26:49;;;;;;;7.20;6.70;;;;;;;;;;5031242;28;20415;-89
2021/07/04 05:29:16;;;;;;;7.28;6.68;;;;;;;;;;5038468;28;20718;-89
2021/07/04 05:31:43;;;;;;;7.05;6.45;;;;;;;;;;5035225;28;20905;-89
2021/07/04 05:34:11;;;;;;;7.32;6.72;;;;;;;;;;5030931;28;20956;-89
2021/07/04 05:36:38;;;;;;;7.53;6.93;;;;;;;;;;5034695;28;20436;-89
2021/07/04 05:39:05;;;;;;;7.10;6.60;;;;;;;;;;5031667;28;20395;-89
2021/07/04 05:41:32;;;;;;;7.32;6.72;;;;;;;;;;5034842;28;20402;-88
2021/07/04 05:43:59;;;;;;;7.07;6.47;;;;;;;;;;5036713;28;20419;-88
2021/07/04 05:46:26;;;;;;;6.57;6.05;;;;;;;;;;5034351;28;20421;-89
2021/07/04 05:48:53;;;;;;;6.57;5.97;;;;;;;;;;5037950;28;20851;-89
2021/07/04 05:51:21;;;;;;;6.40;5.90;;;;;;;;;;5034206;28;20844;-89
2021/07/04 05:53:48;;;;;;;6.22;5.72;;;;;;;;;;5034405;28;20869;-89
2021/07/04 05:56:15;;;;;;;6.25;5.75;;;;;;;;;;5033955;28;20417;-89
2021/07/04 05:58:42;;;;;;;6.85;6.25;;;;;;;;;;5036254;28;20424;-89
2021/07/04 06:01:09;;;;;;;6.47;5.97;;;;;;;;;;5039687;28;20652;-89
2021/07/04 06:03:36;;;;;;;6.15;5.65;;;;;;;;;;5035563;28;20455;-88
2021/07/04 06:06:03;;;;;;;6.35;5.80;;;;;;;;;;5035554;28;20415;-87
2021/07/04 06:08:31;;;;;;;6.88;6.35;;;;;;;;;;5045378;28;20406;-89
2021/07/04 06:10:58;;;;;;;6.87;6.27;;;;;;;;;;5045333;28;20427;-89
2021/07/04 06:13:25;;;;;;;6.85;6.20;;;;;;;;;;5045655;28;20465;-89
2021/07/04 06:15:52;;;;;;;6.93;6.40;;;;;;;;;;5045004;28;20780;-88
2021/07/04 06:18:19;;;;;;;11.10;6.32;;;;;;;;;;5045187;28;20402;-89
2021/07/04 06:20:46;;;;;;;5.60;5.15;;;;;;;;;;5045185;28;20414;-88
2021/07/04 06:23:13;;;;;;;5.47;4.97;;;;;;;;;;5027694;28;20408;-88
2021/07/04 06:25:42;;;;;;;5.13;4.72;;;;;;;;;;5045232;28;20736;-89
2021/07/04 06:28:09;;;;;;;5.32;4.82;;;;;;;;;;5044160;28;20400;-88
2021/07/04 06:30:36;;;;;;;5.28;4.88;;;;;;;;;;5044540;28;20519;-88
2021/07/04 06:33:03;;;;;;;5.10;4.60;;;;;;;;;;5044456;28;20435;-89
2021/07/04 06:35:30;;;;;;;4.43;4.10;;;;;;;;;;5045270;28;20422;-89
2021/07/04 06:37:57;;;;;;;5.03;4.53;;;;;;;;;;5045134;28;21115;-89
2021/07/04 06:40:24;;;;;;;4.68;4.22;;;;;;;;;;5045278;28;20408;-88
2021/07/04 06:42:52;;;;;;;4.47;4.07;;;;;;;;;;5027241;28;20812;-89
2021/07/04 06:45:22;;;;;;;5.30;4.20;;;;;;;;;;5028024;28;20392;-90
2021/07/04 06:47:50;;;;;;;4.65;4.30;;;;;;;;;;5045236;28;20907;-90
2021/07/04 06:50:25;;;;;;;4.85;4.45;;;;;;;;;;5044885;28;20489;-89
2021/07/04 06:52:52;;;;;;;4.40;4.10;;;;;;;;;;5038237;28;20401;-90
2021/07/04 06:55:20;;;;;;;4.35;3.95;;;;;;;;;;5035179;28;20419;-89
2021/07/04 06:57:47;;;;;;;4.20;3.80;;;;;;;;;;5038123;28;20964;-89
2021/07/04 07:00:17;;;;;;;4.63;4.22;;;;;;;;;;5035993;28;20403;-89
2021/07/04 07:02:44;;;;;;;4.65;4.10;;;;;;;;;;5042079;28;21029;-89
2021/07/04 07:05:13;;;;;;;4.05;3.75;;;;;;;;;;5044546;28;20420;-89
2021/07/04 07:07:40;;;;;;;4.10;3.67;;;;;;;;;;5044836;28;20764;-89
2021/07/04 07:10:10;;;;;;;4.00;3.60;;;;;;;;;;5044662;28;20536;-89
2021/07/04 07:12:38;;;;;;;4.40;4.00;;;;;;;;;;5044245;28;20407;-90
2021/07/04 07:15:07;;;;;;;4.15;3.78;;;;;;;;;;5044187;28;20422;-89
2021/07/04 07:17:35;;;;;;;4.25;3.83;;;;;;;;;;5043726;28;20515;-90
2021/07/04 07:20:02;;;;;;;3.75;3.25;;;;;;;;;;5044020;28;20418;-89
2021/07/04 07:22:29;;;;;;;5.20;3.40;;;;;;;;;;5043193;28;20407;-89
2021/07/04 07:24:56;;;;;;;4.40;3.70;;;;;;;;;;5044013;28;20549;-89
2021/07/04 07:27:23;;;;;;;4.05;3.22;;;;;;;;;;5043718;28;20415;-89
2021/07/04 07:29:50;;;;;;;4.32;3.90;;;;;;;;;;5044648;28;20406;-89
2021/07/04 07:32:17;;;;;;;4.38;3.90;;;;;;;;;;5044117;28;20815;-90
2021/07/04 07:34:45;;;;;;;4.15;3.75;;;;;;;;;;5043369;28;20888;-89
2021/07/04 07:37:13;;;;;;;3.72;3.42;;;;;;;;;;5044087;28;20419;-89
2021/07/04 07:39:40;;;;;;;3.97;3.67;;;;;;;;;;5043760;28;20415;-89
2021/07/04 07:42:07;;;;;;;3.53;3.22;;;;;;;;;;5043867;28;20400;-89
2021/07/04 07:44:34;;;;;;;4.93;3.63;;;;;;;;;;5044074;28;20752;-89
2021/07/04 07:47:01;;;;;;;4.00;3.70;;;;;;;;;;5043485;28;20406;-89
2021/07/04 07:49:28;;;;;;;3.97;3.38;;;;;;;;;;5044089;28;20408;-88
2021/07/04 07:51:59;;;;;;;5.03;3.22;;;;;;;;;;5043883;28;20419;-89
2021/07/04 07:54:26;;;;;;;4.75;3.40;;;;;;;;;;5040377;28;20414;-89
2021/07/04 07:56:53;;;;;;;3.83;3.22;;;;;;;;;;5040017;28;20411;-89
2021/07/04 07:59:21;;;;;;;4.13;3.50;;;;;;;;;;5042903;28;20414;-89
2021/07/04 08:01:48;;;;;;;4.17;3.20;;;;;;;;;;5043553;28;20756;-89
2021/07/04 08:04:14;;;;;;;4.72;3.10;;;;;;;;;;5043759;28;20418;-89
2021/07/04 08:06:41;;;;;;;4.47;2.90;;;;;;;;;;5034630;28;20817;-89
2021/07/04 08:09:10;;;;;;;3.40;3.00;;;;;;;;;;5033979;28;20506;-89
2021/07/04 08:11:36;;;;;;;4.55;3.67;;;;;;;;;;5024031;28;20405;-89
2021/07/04 08:14:03;;;;;;;4.80;3.20;;;;;;;;;;5023348;28;20413;-89
2021/07/04 08:16:31;;;;;;;3.58;2.90;;;;;;;;;;5031672;28;20769;-89
2021/07/04 08:18:58;;;;;;;3.53;2.70;;;;;;;;;;5035080;28;20811;-89
2021/07/04 08:21:27;;;;;;;4.88;2.80;;;;;;;;;;5027189;28;20902;-90
2021/07/04 08:23:54;;;;;;;3.03;2.63;;;;;;;;;;5019729;28;20405;-87
2021/07/04 08:26:23;;;;;;;4.97;2.90;;;;;;;;;;5014817;28;20594;-88
2021/07/04 08:28:50;;;;;;;4.05;2.92;;;;;;;;;;5023813;28;20409;-89
2021/07/04 08:31:17;;;;;;;4.57;2.78;;;;;;;;;;5023485;28;20409;-89
2021/07/04 08:33:44;;;;;;;3.28;2.70;;;;;;;;;;5024249;28;20409;-89
2021/07/04 08:36:11;;;;;;;3.55;2.88;;;;;;;;;;5023183;28;20432;-90
2021/07/04 08:38:38;;;;;;;5.20;3.20;;;;;;;;;;5023687;28;20413;-90
2021/07/04 08:41:05;;;;;;;3.60;3.05;;;;;;;;;;5023301;28;20408;-90
2021/07/04 08:43:35;;;;;;;4.75;3.28;;;;;;;;;;5031131;28;20412;-89
2021/07/04 08:46:04;;;;;;;3.95;2.80;;;;;;;;;;5031594;28;20872;-88
2021/07/04 08:48:33;;;;;;;3.63;2.47;;;;;;;;;;5031388;28;20460;-89
2021/07/04 08:51:00;;;;;;;3.47;2.60;;;;;;;;;;5027377;28;20893;-91
2021/07/04 08:53:27;;;;;;;3.85;3.03;;;;;;;;;;5023805;28;20410;-88
2021/07/04 08:55:54;;;;;;;2.40;1.92;;;;;;;;;;5034297;28;20888;-89
2021/07/04 08:58:23;;;;;;;2.50;1.80;;;;;;;;;;5024142;28;20913;-89
2021/07/04 09:01:12;;;;;;;4.47;2.90;;;;;;;;;;5026157;28;21168;-89
2021/07/04 09:03:40;;;;;;;3.58;2.40;;;;;;;;;;5030444;28;20412;-89
2021/07/04 09:06:08;;;;;;;4.15;3.03;;;;;;;;;;5034741;28;20862;-89
2021/07/04 09:08:36;;;;;;;2.50;2.20;;;;;;;;;;5040095;28;20443;-89
2021/07/04 09:11:24;;;;;;;3.50;2.00;;;;;;;;;;5041215;28;20398;-89
2021/07/04 09:13:51;;;;;;;3.60;2.10;;;;;;;;;;5046277;28;20408;-88
2021/07/04 09:16:21;;;;;;;4.03;3.00;;;;;;;;;;5059091;28;20454;-90
2021/07/04 09:19:09;;;;;;;5.55;3.08;;;;;;;;;;5060528;28;20490;-90
2021/07/04 09:21:36;;;;;;;4.32;3.28;;;;;;;;;;5050502;28;20420;-89
2021/07/04 09:24:22;;;;;;;2.88;2.60;;;;;;;;;;5062532;28;20396;-90
2021/07/04 09:26:49;;;;;;;3.20;2.63;;;;;;;;;;5058903;28;20389;-90
2021/07/04 09:29:16;;;;;;;4.47;3.08;;;;;;;;;;5050844;28;20523;-89
2021/07/04 09:31:44;;;;;;;5.05;3.35;;;;;;;;;;5060413;28;20405;-90
2021/07/04 09:34:13;;;;;;;3.70;3.33;;;;;;;;;;5061141;28;20388;-90
2021/07/04 09:36:42;;;;;;;3.40;3.08;;;;;;;;;;5059126;28;20401;-90
2021/07/04 09:39:17;;;;;;;3.53;2.85;;;;;;;;;;5039803;28;20403;-90
2021/07/04 09:42:07;;;;;;;4.00;3.03;;;;;;;;;;5035632;28;20465;-90
2021/07/04 09:44:34;;;;;;;3.50;2.88;;;;;;;;;;5029955;28;20413;-90
2021/07/04 09:47:18;;;;;;;3.63;3.30;;;;;;;;;;5030419;28;20462;-89
2021/07/04 09:49:46;;;;;;;3.57;2.57;;;;;;;;;;5036661;28;20401;-90
2021/07/04 09:52:18;;;;;;;3.40;3.10;;;;;;;;;;5037849;28;20823;-90
2021/07/04 09:54:56;;;;;;;4.63;3.67;;;;;;;;;;5035726;28;20409;-89
2021/07/04 09:57:25;;;;;;;3.42;3.13;;;;;;;;;;5035419;28;20429;-90
2021/07/04 10:00:14;;;;;;;6.20;3.37;;;;;;;;;;5026276;28;20458;-90
2021/07/04 10:02:42;;;;;;;3.78;3.45;;;;;;;;;;5032049;28;20456;-89
2021/07/04 10:05:14;;;;;;;3.60;3.30;;;;;;;;;;5029717;28;20820;-90
2021/07/04 10:07:41;;;;;;;3.70;3.42;;;;;;;;;;5036765;28;20408;-91
2021/07/04 10:10:09;;;;;;;4.78;3.70;;;;;;;;;;5034017;28;20413;-89
2021/07/04 10:12:35;;;;;;;4.13;3.65;;;;;;;;;;5037351;28;20838;-90
2021/07/04 10:15:02;;;;;;;5.47;3.70;;;;;;;;;;5030247;28;20419;-89
2021/07/04 10:17:30;;;;;;;4.70;3.50;;;;;;;;;;5029372;28;20416;-90
2021/07/04 10:20:00;;;;;;;4.60;3.47;;;;;;;;;;5035007;28;20460;-90
2021/07/04 10:22:35;;;;;;;4.20;3.33;;;;;;;;;;5036452;28;20808;-90
2021/07/04 10:25:03;;;;;;;3.88;3.50;;;;;;;;;;5030421;28;20404;-89
2021/07/04 10:27:32;;;;;;;3.97;3.50;;;;;;;;;;5029774;28;20458;-90
2021/07/04 10:29:59;;;;;;;4.60;3.80;;;;;;;;;;5030384;28;20416;-91
2021/07/04 10:32:26;;;;;;;3.78;3.47;;;;;;;;;;5034539;28;20413;-90
2021/07/04 10:34:53;;;;;;;4.72;3.60;;;;;;;;;;5037098;28;20818;-90
2021/07/04 10:37:32;;;;;;;4.75;4.20;;;;;;;;;;5034577;28;20814;-90
2021/07/04 10:40:11;;;;;;;4.22;3.70;;;;;;;;;;5037423;28;20757;-90
2021/07/04 10:42:39;;;;;;;3.72;3.42;;;;;;;;;;5031112;28;20412;-90
2021/07/04 10:45:31;;;;;;;3.80;3.40;;;;;;;;;;5036808;28;20414;-90
2021/07/04 10:48:16;;;;;;;4.40;3.92;;;;;;;;;;5037493;28;20638;-90
2021/07/04 10:51:08;;;;;;;4.20;3.80;;;;;;;;;;5036587;28;20439;-90
2021/07/04 10:53:50;;;;;;;4.40;3.50;;;;;;;;;;5029918;28;20412;-90
2021/07/04 10:56:39;;;;;;;4.72;3.50;;;;;;;;;;5034826;28;20411;-90
2021/07/04 10:59:07;;;;;;;3.80;3.40;;;;;;;;;;5026545;28;20410;-90
2021/07/04 11:01:52;;;;;;;4.45;3.80;;;;;;;;;;5036642;28;20400;-88
2021/07/04 11:04:50;;;;;;;4.47;4.10;;;;;;;;;;5035796;28;20443;-90
2021/07/04 11:07:17;;;;;;;3.85;3.47;;;;;;;;;;5029047;28;20416;-90
2021/07/04 11:10:20;;;;;;;4.53;3.88;;;;;;;;;;5034926;28;20876;-89
2021/07/04 11:12:47;;;;;;;4.33;3.60;;;;;;;;;;5034635;28;20541;-90
2021/07/04 11:15:31;;;;;;;4.55;3.63;;;;;;;;;;5036879;28;20913;-89
2021/07/04 11:18:09;;;;;;;4.10;3.70;;;;;;;;;;5044572;28;20819;-89
2021/07/04 11:20:57;;;;;;;4.05;3.70;;;;;;;;;;5037045;28;20887;-90
2021/07/04 11:23:26;;;;;;;5.72;3.78;;;;;;;;;;5044910;28;20400;-90
2021/07/04 11:25:57;;;;;;;4.40;3.60;;;;;;;;;;5042546;28;20947;-90
2021/07/04 11:28:27;;;;;;;4.05;3.70;;;;;;;;;;5039362;28;20391;-89
2021/07/04 11:30:55;;;;;;;3.88;3.50;;;;;;;;;;5044210;28;20407;-90
2021/07/04 11:33:35;;;;;;;3.78;3.47;;;;;;;;;;5042786;28;20872;-89
2021/07/04 11:36:06;;;;;;;5.75;3.60;;;;;;;;;;5044075;28;20491;-90
2021/07/04 11:38:34;;;;;;;3.58;3.20;;;;;;;;;;5037802;28;20413;-89
2021/07/04 11:41:04;;;;;;;4.95;3.60;;;;;;;;;;5033293;28;20677;-89
2021/07/04 11:43:31;;;;;;;4.13;3.37;;;;;;;;;;5033234;28;20790;-89
2021/07/04 11:46:01;;;;;;;4.38;3.17;;;;;;;;;;5033098;28;20406;-90
2021/07/04 11:48:53;;;;;;;3.40;3.08;;;;;;;;;;5036917;28;20417;-89
2021/07/04 11:51:29;;;;;;;4.13;3.00;;;;;;;;;;5032997;28;20417;-90
2021/07/04 11:53:58;;;;;;;3.60;2.92;;;;;;;;;;5034451;28;20420;-89
2021/07/04 11:56:27;;;;;;;2.97;2.78;;;;;;;;;;5031359;28;20409;-89
2021/07/04 11:58:54;;;;;;;2.95;2.65;;;;;;;;;;5030158;28;20403;-89
2021/07/04 12:01:23;;;;;;;3.70;2.70;;;;;;;;;;5034431;28;20417;-90
2021/07/04 12:03:52;;;;;;;3.60;2.90;;;;;;;;;;5034380;28;20772;-90
2021/07/04 12:06:19;;;;;;;3.72;2.90;;;;;;;;;;5024286;28;20408;-90
2021/07/04 12:08:58;;;;;;;3.08;2.67;;;;;;;;;;5024742;28;20420;-89
2021/07/04 12:11:53;;;;;;;3.40;2.60;;;;;;;;;;5031295;28;20428;-89
2021/07/04 12:14:29;;;;;;;3.63;2.80;;;;;;;;;;5026479;28;20415;-88
2021/07/04 12:16:57;;;;;;;3.08;2.88;;;;;;;;;;5031384;28;20420;-89
2021/07/04 12:19:32;;;;;;;3.30;3.00;;;;;;;;;;5014349;28;21945;-89
2021/07/04 12:22:01;;;;;;;3.40;3.10;;;;;;;;;;5023061;28;20407;-88
2021/07/04 12:24:35;;;;;;;3.60;3.10;;;;;;;;;;5028698;28;20907;-89
2021/07/04 12:27:04;;;;;;;3.22;3.00;;;;;;;;;;5028356;28;20761;-89
2021/07/04 12:29:32;;;;;;;3.13;2.83;;;;;;;;;;5035498;28;20415;-88
2021/07/04 12:32:01;;;;;;;3.60;2.80;;;;;;;;;;5031442;28;20404;-88
2021/07/04 12:34:29;;;;;;;3.95;3.03;;;;;;;;;;5036039;28;20762;-89
2021/07/04 12:36:56;;;;;;;12.10;4.40;;;;;;;;;;5033627;28;20458;-89
2021/07/04 12:39:30;;;;;;;6.43;4.32;;;;;;;;;;5034574;28;20433;-91
2021/07/04 12:42:00;;;;;;;4.45;4.05;;;;;;;;;;5033470;28;20478;-90
2021/07/04 12:44:28;;;;;;;5.97;4.22;;;;;;;;;;5034972;28;20624;-89
2021/07/04 12:46:55;;;;;;;4.22;3.72;;;;;;;;;;5039450;28;20615;-91
2021/07/04 12:49:22;;;;;;;4.47;3.63;;;;;;;;;;5037901;28;21351;-90
2021/07/04 12:51:49;;;;;;;4.07;3.17;;;;;;;;;;5038439;28;20408;-89
2021/07/04 12:54:21;;;;;;;3.53;3.17;;;;;;;;;;5038972;28;20892;-90
2021/07/04 12:56:50;;;;;;;3.78;3.10;;;;;;;;;;5035660;28;20411;-90
2021/07/04 12:59:25;;;;;;;3.30;3.00;;;;;;;;;;5036570;28;20820;-91
2021/07/04 13:01:59;;;;;;;3.70;3.40;;;;;;;;;;5038087;28;20425;-90
2021/07/04 13:04:26;;;;;;;5.67;3.30;;;;;;;;;;5037179;28;20414;-90
2021/07/04 13:07:02;;;;;;;3.97;3.63;;;;;;;;;;5040244;28;20983;-90
2021/07/04 13:09:43;;;;;;;3.92;3.30;;;;;;;;;;5039112;28;20515;-90
2021/07/04 13:12:13;;;;;;;3.80;3.40;;;;;;;;;;5039686;28;20413;-89
2021/07/04 13:14:44;;;;;;;5.25;3.22;;;;;;;;;;5035312;28;20409;-89
2021/07/04 13:17:21;;;;;;;3.20;2.90;;;;;;;;;;5035065;28;20417;-91
2021/07/04 13:19:50;;;;;;;3.97;2.97;;;;;;;;;;5035858;28;20409;-90
2021/07/04 13:22:19;;;;;;;3.67;3.00;;;;;;;;;;5038464;28;20605;-91
2021/07/04 13:24:52;;;;;;;5.10;3.13;;;;;;;;;;5036476;28;20484;-90
2021/07/04 13:27:22;;;;;;;4.97;3.20;;;;;;;;;;5037277;28;20418;-90
2021/07/04 13:29:54;;;;;;;3.28;2.97;;;;;;;;;;5038270;28;20415;-90
2021/07/04 13:32:26;;;;;;;3.50;3.20;;;;;;;;;;5037145;28;20409;-89
2021/07/04 13:35:13;;;;;;;3.50;3.20;;;;;;;;;;5037710;28;20660;-90
2021/07/04 13:37:51;;;;;;;3.75;3.35;;;;;;;;;;5035185;28;20417;-90
2021/07/04 13:40:18;;;;;;;3.75;3.05;;;;;;;;;;5032915;28;20436;-91
2021/07/04 13:42:47;;;;;;;3.50;3.20;;;;;;;;;;5035580;28;20524;-89
2021/07/04 13:45:45;;;;;;;4.50;3.30;;;;;;;;;;5038204;28;20815;-91
2021/07/04 13:48:15;;;;;;;3.78;2.83;;;;;;;;;;5032034;28;20443;-90
2021/07/04 13:50:44;;;;;;;4.00;3.03;;;;;;;;;;5039380;28;20418;-89
2021/07/04 13:53:12;;;;;;;3.83;3.05;;;;;;;;;;5034947;28;20894;-90
2021/07/04 13:55:41;;;;;;;3.30;3.00;;;;;;;;;;5019354;28;20466;-90
2021/07/04 13:58:09;;;;;;;3.85;3.45;;;;;;;;;;5014122;28;20428;-90
2021/07/04 14:00:37;;;;;;;3.50;3.20;;;;;;;;;;5030754;28;20920;-89
2021/07/04 14:03:06;;;;;;;3.45;3.22;;;;;;;;;;5027650;28;20409;-89
2021/07/04 14:05:35;;;;;;;3.25;2.95;;;;;;;;;;5038770;28;20437;-90
2021/07/04 14:08:02;;;;;;;3.20;2.95;;;;;;;;;;5035132;28;20408;-90
2021/07/04 14:10:29;;;;;;;3.45;3.15;;;;;;;;;;5036807;28;20416;-90
2021/07/04 14:12:56;;;;;;;3.20;2.90;;;;;;;;;;5034243;28;20805;-89
2021/07/04 14:15:23;;;;;;;3.10;2.83;;;;;;;;;;5038852;28;20416;-89
2021/07/04 14:17:50;;;;;;;3.58;3.10;;;;;;;;;;5036616;28;20412;-90
2021/07/04 14:20:19;;;;;;;3.07;2.80;;;;;;;;;;5038721;28;20404;-89
2021/07/04 14:22:48;;;;;;;3.30;3.00;;;;;;;;;;5036040;28;20424;-90
2021/07/04 14:25:17;;;;;;;3.28;2.97;;;;;;;;;;5037369;28;20431;-90
2021/07/04 14:27:45;;;;;;;3.35;3.05;;;;;;;;;;5034429;28;20413;-89
2021/07/04 14:30:15;;;;;;;3.97;3.00;;;;;;;;;;5041385;28;20411;-89
2021/07/04 14:32:42;;;;;;;3.28;3.00;;;;;;;;;;5033898;28;20407;-90
2021/07/04 14:35:11;;;;;;;4.30;3.20;;;;;;;;;;5026277;28;20481;-89
2021/07/04 14:37:38;;;;;;;4.20;3.40;;;;;;;;;;5037729;28;20422;-89
2021/07/04 14:40:08;;;;;;;3.80;3.50;;;;;;;;;;5035558;28;20414;-90
2021/07/04 14:42:35;;;;;;;5.82;3.53;;;;;;;;;;5037851;28;20404;-90
2021/07/04 14:45:02;;;;;;;3.50;3.20;;;;;;;;;;5033318;28;20424;-89
2021/07/04 14:47:29;;;;;;;4.45;3.80;;;;;;;;;;5035498;28;20578;-90
2021/07/04 14:49:55;;;;;;;3.40;3.10;;;;;;;;;;5035989;28;20913;-89
2021/07/04 14:52:24;;;;;;;4.15;3.58;;;;;;;;;;5035989;28;20777;-90
2021/07/04 14:54:53;;;;;;;3.88;3.47;;;;;;;;;;5035609;28;20410;-90
2021/07/04 14:57:22;;;;;;;3.97;3.45;;;;;;;;;;5036440;28;20404;-91
2021/07/04 14:59:53;;;;;;;8.57;7.88;;;;;;;;;;5035335;28;20409;-90